Архив погоды в Колымской

Метеограмма Колымская
Четверг, 20 Июня
Время местн. Темп Ветер Видим Явления Облачность нижн/средн/верх Атм. давл. Влжн Точка росы ВНГО R Сост. почвы Tg s
Напр Скр Прв ур.ст ур.м изм
13:00 +13.4° С-З 2 - 20 км слабый ливневый дождь облачно 685 756 -0.2 82% +10.4° 1.5 км - - - -
10:00 - +13.3° С,С-В 2 - - - - 685 757 0 76% +9.2° - - - - -
07:00 +10.7° С-З 2 - 20 км слабый ливневый дождь облачно 685 757 -0.2 96% +10.1° 1.5 км 0.4 Влажная (без луж) - -
04:00 - +10.6° В,С-В 1 - - - - 686 758 -0.2 92% +9.3° - - - - -
01:00 +11.8° С 3 - 50 км небо без изменений {ливневые осадки} облачно 686 757 -0.2 75% +7.5° 1.5 км - - - -
Среда, 19 Июня
Время местн. Темп Ветер Видим Явления Облачность нижн/средн/верх Атм. давл. Влжн Точка росы ВНГО R Сост. почвы Tg s
Напр Скр Прв ур.ст ур.м изм
22:00 - +12.2° С-В 3 - - - - 686 758 +0.4 71% +7.2° - - - - -
19:00 +13.8° В,С-В 2 - 50 км - облачно 686 757 +0.2 63% +6.9° 1.5 км 0 - - -
16:00 - +15.1° С-В 1 - - - - 685 756 -0.2 57% +6.7° - - - - -
13:00 +15.7° С,С-В 2 - более 50 км - преимущественно облачно 686 756 +0.2 56% +6.9° 1.5 км - - - -
10:00 - +14.3° С-В 4 - - - - 686 757 +0.2 61% +6.9° - - - - -
07:00 +11.5° С,С-В 3 - более 50 км - облачно 686 757 -0.2 69% +6.1° 1.5 км 0 Влажная (без луж) +7° -
04:00 - +9.3° С 2 - - - - 686 758 0 74% +5° - - - - -
01:00 +9.3° С,С-В 4 - 50 км - облачно 686 758 -0.2 74% +5° 1.5 км - - - -
Вторник, 18 Июня
Время местн. Темп Ветер Видим Явления Облачность нижн/средн/верх Атм. давл. Влжн Точка росы ВНГО R Сост. почвы Tg s
Напр Скр Прв ур.ст ур.м изм
22:00 - +9.7° С 3 - - - - 686 758 +0.2 71% +4.7° - - - - -
19:00 +10.4° С 3 - 50 км - облачно 686 758 +0.2 67% +4.6° 1.5 км 0 - - -
16:00 - +10.9° С,С-В 3 - - - - 686 758 0 70% +5.6° - - - - -
13:00 +10.4° С 3 - 50 км небо без изменений {ливневые осадки, дождь} облачно 686 758 -0.6 73% +5.7° 1.5 км - - - -
10:00 - +8.4° С 3 - - - - 686 759 +0.1 79% +4.9° - - - - -
07:00 +6.7° С 2 - 20 км слабый непрерывный дождь облачно 687 760 -0.2 83% +4° 1.5 км 0.7 Влажная (без луж) +5° -
04:00 - +4° штиль 0 - - - - 687 761 -0.4 95% +3.2° - - - - -
01:00 +5.4° В,Ю-В 1 - более 50 км - облачно 687 761 -0.8 76% +1.5° 1.5 км - - - -
Понедельник, 17 Июня
Время местн. Темп Ветер Видим Явления Облачность нижн/средн/верх Атм. давл. Влжн Точка росы ВНГО R Сост. почвы Tg s
Напр Скр Прв ур.ст ур.м изм
22:00 - +6.5° В 2 - - - - 688 761 +0.1 65% +0.5° - - - - -
19:00 +8.5° В 2 - 50 км - облачно 688 761 -0.2 49% -1.5° 1.5 км 0 - - -
16:00 - +9.8° Ю-В 2 - - - - 688 760 -0.4 44% -2° - - - - -
13:00 +7.5° Ю 1 - 50 км - облачно 688 762 +0.2 54% -1.2° 1.5 км - - - -
10:00 - +6.4° В,Ю-В 2 - - - - 688 762 +0.8 64% +0.2° - - - - -